Time;durP1;ratioP1;P1;durP2;ratioP2;P2;SDS_P1;SDS_P2;PMS_P1;PMS_P2;Temp;Humidity;BMP_temperature;BMP_pressure;BME280_temperature;BME280_humidity;BME280_pressure;Samples;Min_cycle;Max_cycle;Signal;HPM_P1;HPM_P2
2021/08/19 00:00:49;;;;;;;1.83;1.60;;;16.00;99.90;;;;;;5000524;28;20519;-69
2021/08/19 00:03:16;;;;;;;1.80;1.60;;;15.90;99.90;;;;;;5000966;28;21016;-69
2021/08/19 00:05:42;;;;;;;2.10;2.00;;;16.00;99.90;;;;;;4996603;28;20466;-69
2021/08/19 00:08:10;;;;;;;2.37;2.17;;;16.00;99.90;;;;;;4999757;28;20473;-69
2021/08/19 00:10:37;;;;;;;2.30;2.10;;;16.00;99.90;;;;;;5000052;28;20469;-69
2021/08/19 00:13:04;;;;;;;2.80;2.50;;;16.00;99.90;;;;;;4999544;28;20478;-69
2021/08/19 00:15:31;;;;;;;2.00;1.90;;;16.00;99.90;;;;;;4998613;28;20453;-69
2021/08/19 00:17:58;;;;;;;1.73;1.63;;;16.00;99.90;;;;;;5000782;28;20461;-68
2021/08/19 00:20:24;;;;;;;2.53;2.17;;;15.90;99.90;;;;;;4999045;28;20481;-69
2021/08/19 00:22:52;;;;;;;2.03;1.90;;;15.90;99.90;;;;;;4999427;28;20468;-69
2021/08/19 00:25:20;;;;;;;2.70;2.40;;;16.00;99.90;;;;;;5000883;28;20468;-68
2021/08/19 00:27:47;;;;;;;3.63;2.00;;;15.90;99.90;;;;;;4998740;28;20474;-69
2021/08/19 00:30:13;;;;;;;2.03;1.83;;;16.00;99.90;;;;;;4999383;28;20461;-68
2021/08/19 00:32:40;;;;;;;2.20;2.00;;;16.00;99.90;;;;;;5000419;28;20964;-69
2021/08/19 00:35:08;;;;;;;1.97;1.87;;;16.00;99.90;;;;;;4999545;28;20517;-69
2021/08/19 00:37:34;;;;;;;2.63;2.33;;;16.00;99.90;;;;;;4998285;28;20481;-68
2021/08/19 00:40:01;;;;;;;3.83;1.87;;;16.00;99.90;;;;;;5000652;28;20461;-69
2021/08/19 00:42:30;;;;;;;3.10;1.90;;;15.90;99.90;;;;;;4996497;28;20475;-69
2021/08/19 00:44:58;;;;;;;1.90;1.80;;;15.90;99.90;;;;;;4997258;28;20458;-69
2021/08/19 00:47:26;;;;;;;1.70;1.60;;;15.90;99.90;;;;;;4999557;28;20493;-69
2021/08/19 00:49:57;;;;;;;1.70;1.60;;;16.00;99.90;;;;;;4997827;28;20854;-69
2021/08/19 00:52:23;;;;;;;1.93;1.83;;;16.00;99.90;;;;;;4990203;28;20469;-69
2021/08/19 00:54:50;;;;;;;5.73;1.90;;;16.00;99.90;;;;;;4990167;28;20501;-69
2021/08/19 00:57:17;;;;;;;1.70;1.47;;;16.00;99.90;;;;;;4989739;28;20907;-69
2021/08/19 00:59:45;;;;;;;2.20;1.53;;;16.00;99.90;;;;;;4990019;28;20477;-69
2021/08/19 01:02:11;;;;;;;2.37;1.73;;;16.00;99.90;;;;;;4989937;28;20473;-69
2021/08/19 01:04:39;;;;;;;1.50;1.40;;;16.00;99.90;;;;;;4989727;28;20466;-69
2021/08/19 01:07:06;;;;;;;1.60;1.50;;;16.00;99.90;;;;;;4990006;28;20489;-68
2021/08/19 01:09:35;;;;;;;1.50;1.40;;;16.00;99.90;;;;;;4987683;28;20462;-69
2021/08/19 01:12:04;;;;;;;2.00;1.80;;;16.00;99.90;;;;;;4989659;28;20466;-69
2021/08/19 01:14:31;;;;;;;2.13;1.67;;;16.00;99.90;;;;;;4989125;28;20490;-68
2021/08/19 01:16:59;;;;;;;1.60;1.50;;;16.00;99.90;;;;;;4989615;28;20544;-69
2021/08/19 01:19:26;;;;;;;1.87;1.60;;;16.00;99.90;;;;;;4988539;28;20473;-69
2021/08/19 01:21:53;;;;;;;1.50;1.30;;;16.00;99.90;;;;;;4989282;28;20979;-69
2021/08/19 01:24:20;;;;;;;1.60;1.50;;;16.00;99.90;;;;;;4989173;28;20469;-68
2021/08/19 01:26:48;;;;;;;1.43;1.33;;;16.00;99.90;;;;;;4989121;28;20486;-69
2021/08/19 01:29:16;;;;;;;1.27;1.17;;;16.10;99.90;;;;;;4988698;28;20510;-68
2021/08/19 01:31:56;;;;;;;1.50;1.40;;;16.10;99.90;;;;;;4989176;28;20466;-69
2021/08/19 01:34:23;;;;;;;1.87;1.53;;;16.10;99.90;;;;;;4989205;28;20899;-69
2021/08/19 01:36:50;;;;;;;1.47;1.37;;;16.00;99.90;;;;;;4989416;28;20489;-68
2021/08/19 01:39:16;;;;;;;1.77;1.53;;;16.00;99.90;;;;;;4988023;28;20845;-68
2021/08/19 01:41:43;;;;;;;3.73;1.53;;;16.10;99.90;;;;;;4989395;28;20516;-68
2021/08/19 01:44:10;;;;;;;2.10;1.60;;;16.10;99.90;;;;;;4988917;28;20446;-69
2021/08/19 01:46:38;;;;;;;1.53;1.40;;;16.10;99.90;;;;;;4989334;28;20486;-69
2021/08/19 01:49:04;;;;;;;1.63;1.53;;;16.10;99.90;;;;;;4988442;28;20462;-69
2021/08/19 01:51:33;;;;;;;1.83;1.67;;;16.00;99.90;;;;;;4988973;28;20481;-69
2021/08/19 01:54:00;;;;;;;1.80;1.70;;;16.10;99.90;;;;;;4989213;28;20490;-69
2021/08/19 01:56:27;;;;;;;2.83;1.67;;;16.10;99.90;;;;;;4988780;28;20481;-69
2021/08/19 01:58:55;;;;;;;1.70;1.60;;;16.00;99.90;;;;;;4988765;28;20466;-69
2021/08/19 02:01:24;;;;;;;1.80;1.70;;;16.10;99.90;;;;;;4988739;28;20461;-69
2021/08/19 02:03:53;;;;;;;3.50;1.60;;;16.10;99.90;;;;;;4989094;28;20458;-69
2021/08/19 02:06:21;;;;;;;2.73;1.70;;;16.00;99.90;;;;;;4988832;28;20830;-69
2021/08/19 02:08:47;;;;;;;3.20;1.57;;;16.10;99.90;;;;;;4988449;28;20469;-69
2021/08/19 02:11:15;;;;;;;1.77;1.67;;;16.00;99.90;;;;;;4988948;28;20469;-69
2021/08/19 02:13:42;;;;;;;2.10;1.90;;;16.00;99.90;;;;;;4988823;28;20540;-69
2021/08/19 02:16:09;;;;;;;2.30;2.10;;;16.00;99.90;;;;;;4988830;28;20485;-69
2021/08/19 02:18:36;;;;;;;1.67;1.50;;;16.00;99.90;;;;;;4988211;28;21410;-69
2021/08/19 02:21:04;;;;;;;2.90;1.60;;;16.00;99.90;;;;;;4989004;28;20470;-69
2021/08/19 02:23:30;;;;;;;1.60;1.40;;;16.00;99.90;;;;;;4988596;28;20477;-69
2021/08/19 02:25:57;;;;;;;2.10;1.70;;;16.00;99.90;;;;;;4988044;28;20532;-69
2021/08/19 02:28:24;;;;;;;2.20;1.37;;;16.00;99.90;;;;;;4988305;28;20462;-69
2021/08/19 02:30:50;;;;;;;1.77;1.67;;;16.00;99.90;;;;;;4989208;28;20462;-68
2021/08/19 02:33:17;;;;;;;1.67;1.57;;;16.00;99.90;;;;;;4988447;28;20881;-69
2021/08/19 02:35:44;;;;;;;1.43;1.30;;;16.00;99.90;;;;;;4988789;28;20494;-69
2021/08/19 02:38:12;;;;;;;1.60;1.43;;;16.00;99.90;;;;;;4989192;28;20468;-68
2021/08/19 02:40:40;;;;;;;2.07;1.70;;;16.00;99.90;;;;;;4992584;28;20466;-69
2021/08/19 02:43:08;;;;;;;1.90;1.80;;;16.00;99.90;;;;;;4992253;28;20557;-69
2021/08/19 02:45:35;;;;;;;2.07;1.40;;;16.00;99.90;;;;;;4992058;28;20465;-69
2021/08/19 02:48:02;;;;;;;1.80;1.60;;;16.00;99.90;;;;;;4991804;28;20473;-69
2021/08/19 02:50:29;;;;;;;5.10;2.20;;;15.90;99.90;;;;;;4991904;28;20466;-69
2021/08/19 02:52:56;;;;;;;2.27;1.90;;;16.00;99.90;;;;;;4992167;28;20505;-69
2021/08/19 02:55:24;;;;;;;1.60;1.50;;;15.90;99.90;;;;;;4991833;28;20485;-68
2021/08/19 02:57:51;;;;;;;2.07;1.47;;;15.90;99.90;;;;;;4991578;28;20466;-69
2021/08/19 03:00:18;;;;;;;2.27;1.60;;;15.90;99.90;;;;;;4991841;28;20474;-69
2021/08/19 03:02:44;;;;;;;1.70;1.33;;;15.90;99.90;;;;;;4991737;28;20462;-69
2021/08/19 03:05:11;;;;;;;1.33;1.23;;;15.90;99.90;;;;;;4991602;28;20468;-69
2021/08/19 03:07:38;;;;;;;1.57;1.47;;;15.90;99.90;;;;;;4990966;28;21016;-69
2021/08/19 03:10:06;;;;;;;2.70;1.57;;;15.90;99.90;;;;;;4991519;28;20473;-69
2021/08/19 03:12:34;;;;;;;1.60;1.50;;;15.80;99.90;;;;;;4991431;28;20843;-69
2021/08/19 03:15:00;;;;;;;1.90;1.70;;;15.90;99.90;;;;;;4991355;28;20490;-69
2021/08/19 03:17:29;;;;;;;2.30;1.63;;;15.90;99.90;;;;;;4990687;28;20497;-69
2021/08/19 03:19:56;;;;;;;2.87;1.70;;;15.90;99.90;;;;;;4991321;28;20852;-69
2021/08/19 03:22:22;;;;;;;1.90;1.80;;;15.90;99.90;;;;;;4991097;28;20473;-69
2021/08/19 03:24:49;;;;;;;1.93;1.77;;;15.90;99.90;;;;;;4991464;28;20462;-69
2021/08/19 03:27:16;;;;;;;1.80;1.70;;;15.90;99.90;;;;;;4990749;28;20490;-69
2021/08/19 03:29:44;;;;;;;2.90;1.57;;;15.90;99.90;;;;;;4991324;28;20553;-68
2021/08/19 03:32:10;;;;;;;1.97;1.63;;;15.90;99.90;;;;;;4991094;28;20462;-68
2021/08/19 03:34:37;;;;;;;2.20;1.80;;;15.90;99.90;;;;;;4991038;28;20486;-69
2021/08/19 03:37:07;;;;;;;2.50;1.70;;;15.80;99.90;;;;;;4990956;28;21005;-69
2021/08/19 03:39:35;;;;;;;2.67;1.50;;;15.80;99.90;;;;;;4990621;28;20466;-69
2021/08/19 03:42:02;;;;;;;2.20;2.00;;;15.90;99.90;;;;;;4991198;28;20462;-68
2021/08/19 03:44:28;;;;;;;3.63;1.60;;;15.90;99.90;;;;;;4990602;28;20469;-69
2021/08/19 03:46:56;;;;;;;2.00;1.80;;;15.80;99.90;;;;;;4991026;28;20552;-68
2021/08/19 03:49:23;;;;;;;2.03;1.83;;;15.90;99.90;;;;;;4990388;28;21013;-67
2021/08/19 03:51:50;;;;;;;1.97;1.60;;;15.80;99.90;;;;;;4990618;28;20466;-68
2021/08/19 03:54:17;;;;;;;2.37;1.70;;;15.80;99.90;;;;;;4990380;28;20580;-68
2021/08/19 03:56:43;;;;;;;1.83;1.73;;;15.80;99.90;;;;;;4990619;28;20490;-70
2021/08/19 03:59:10;;;;;;;1.63;1.50;;;15.80;99.90;;;;;;4990117;28;20469;-70
2021/08/19 04:01:37;;;;;;;2.00;1.80;;;15.80;99.90;;;;;;4990648;28;20491;-69
2021/08/19 04:04:06;;;;;;;2.10;1.90;;;15.80;99.90;;;;;;4990423;28;20469;-70
2021/08/19 04:06:32;;;;;;;2.03;1.67;;;15.80;99.90;;;;;;4990532;28;20477;-69
2021/08/19 04:08:59;;;;;;;2.23;2.03;;;15.90;99.90;;;;;;4989748;28;20458;-70
2021/08/19 04:11:26;;;;;;;1.80;1.70;;;15.80;99.90;;;;;;4990314;28;20985;-69
2021/08/19 04:13:53;;;;;;;2.03;1.77;;;15.80;99.90;;;;;;4990276;28;20823;-70
2021/08/19 04:16:21;;;;;;;1.97;1.77;;;15.80;99.90;;;;;;4989778;28;20486;-69
2021/08/19 04:18:48;;;;;;;2.27;2.07;;;15.80;99.90;;;;;;4989882;28;20473;-69
2021/08/19 04:21:16;;;;;;;2.20;2.00;;;15.80;99.90;;;;;;4989709;28;20462;-70
2021/08/19 04:23:44;;;;;;;3.17;1.80;;;15.80;99.90;;;;;;4990294;28;20478;-69
2021/08/19 04:26:12;;;;;;;2.10;1.90;;;15.80;99.90;;;;;;4989889;28;20574;-69
2021/08/19 04:28:39;;;;;;;1.60;1.50;;;15.80;99.90;;;;;;4989993;28;20663;-70
2021/08/19 04:31:05;;;;;;;2.20;2.00;;;15.80;99.90;;;;;;4990271;28;20880;-70
2021/08/19 04:33:32;;;;;;;2.23;2.03;;;15.80;99.90;;;;;;4989826;28;20884;-70
2021/08/19 04:35:59;;;;;;;3.53;2.10;;;15.80;99.90;;;;;;4989922;28;20498;-69
2021/08/19 04:38:27;;;;;;;2.00;1.83;;;15.70;99.90;;;;;;4989225;28;20462;-69
2021/08/19 04:40:54;;;;;;;2.57;1.90;;;15.70;99.90;;;;;;4990104;28;20466;-70
2021/08/19 04:43:21;;;;;;;3.07;2.00;;;15.70;99.90;;;;;;4989640;28;20470;-69
2021/08/19 04:45:48;;;;;;;2.40;1.77;;;15.80;99.90;;;;;;4989536;28;20822;-69
2021/08/19 04:48:15;;;;;;;1.73;1.63;;;15.70;99.90;;;;;;4989421;28;20474;-69
2021/08/19 04:50:41;;;;;;;2.00;1.80;;;15.80;99.90;;;;;;4989869;28;20469;-70
2021/08/19 04:53:08;;;;;;;2.07;1.50;;;15.70;99.90;;;;;;4989613;28;20582;-69
2021/08/19 04:55:36;;;;;;;1.70;1.60;;;15.70;99.90;;;;;;4989629;28;20494;-69
2021/08/19 04:58:03;;;;;;;2.40;1.70;;;15.70;99.90;;;;;;4988813;28;20473;-70
2021/08/19 05:00:30;;;;;;;2.10;1.90;;;15.70;99.90;;;;;;4989188;28;20470;-70
2021/08/19 05:02:56;;;;;;;2.83;1.77;;;15.70;99.90;;;;;;4989393;28;20469;-69
2021/08/19 05:05:23;;;;;;;2.83;1.50;;;15.70;99.90;;;;;;4989509;28;20718;-69
2021/08/19 05:07:50;;;;;;;2.30;1.97;;;15.70;99.90;;;;;;4988681;28;20469;-69
2021/08/19 05:10:17;;;;;;;3.03;2.00;;;15.60;99.90;;;;;;4989379;28;20875;-70
2021/08/19 05:12:45;;;;;;;3.83;1.77;;;15.70;99.90;;;;;;4989372;28;20462;-69
2021/08/19 05:15:12;;;;;;;1.63;1.37;;;15.70;99.90;;;;;;4989100;28;20884;-69
2021/08/19 05:17:39;;;;;;;1.80;1.60;;;15.60;99.90;;;;;;4989143;28;20515;-69
2021/08/19 05:20:06;;;;;;;1.93;1.77;;;15.60;99.90;;;;;;5014359;23;20504;-71
2021/08/19 05:22:33;;;;;;;1.87;1.63;;;15.60;99.90;;;;;;5009305;28;20856;-71
2021/08/19 05:25:00;;;;;;;2.37;1.50;;;15.60;99.90;;;;;;5009115;28;20476;-70
2021/08/19 05:27:26;;;;;;;1.98;1.80;;;15.60;99.90;;;;;;5007253;28;20459;-71
2021/08/19 05:29:55;;;;;;;1.80;1.67;;;15.60;99.90;;;;;;5008679;28;20205;-71
2021/08/19 05:32:21;;;;;;;2.43;1.80;;;15.60;99.90;;;;;;5008803;28;20468;-71
2021/08/19 05:34:48;;;;;;;1.70;1.57;;;15.70;99.90;;;;;;5008725;28;20489;-71
2021/08/19 05:37:15;;;;;;;2.53;1.80;;;15.60;99.90;;;;;;5008419;28;20500;-71
2021/08/19 05:39:41;;;;;;;1.90;1.50;;;15.60;99.90;;;;;;5008466;28;20464;-71
2021/08/19 05:42:08;;;;;;;1.93;1.67;;;15.60;99.90;;;;;;5009024;28;20461;-70
2021/08/19 05:44:36;;;;;;;2.40;1.70;;;15.70;99.90;;;;;;5009155;28;20465;-72
2021/08/19 05:47:05;;;;;;;4.43;1.80;;;15.60;99.90;;;;;;5009035;28;20579;-71
2021/08/19 05:49:34;;;;;;;2.13;1.70;;;15.70;99.90;;;;;;5008590;28;20464;-70
2021/08/19 05:52:01;;;;;;;2.57;1.73;;;15.70;99.90;;;;;;5008852;28;20983;-70
2021/08/19 05:54:28;;;;;;;5.70;1.77;;;15.70;99.90;;;;;;5009267;28;21023;-70
2021/08/19 05:56:54;;;;;;;1.90;1.70;;;15.70;99.90;;;;;;5008487;28;20887;-71
2021/08/19 05:59:21;;;;;;;1.47;1.37;;;15.70;99.90;;;;;;5008525;28;20483;-70
2021/08/19 06:01:48;;;;;;;1.67;1.53;;;15.80;99.90;;;;;;5008987;28;20460;-71
2021/08/19 06:04:16;;;;;;;2.43;2.03;;;15.80;99.90;;;;;;5008777;28;20465;-71
2021/08/19 06:06:42;;;;;;;1.97;1.70;;;15.80;99.90;;;;;;5008714;28;20511;-71
2021/08/19 06:09:09;;;;;;;1.83;1.50;;;15.80;99.90;;;;;;5007556;28;20980;-72
2021/08/19 06:11:36;;;;;;;2.00;1.50;;;15.90;99.90;;;;;;5008464;28;21163;-71
2021/08/19 06:14:02;;;;;;;2.03;1.83;;;15.90;99.90;;;;;;5011038;28;20465;-71
2021/08/19 06:16:29;;;;;;;2.37;1.93;;;15.90;99.90;;;;;;5012302;28;20497;-71
2021/08/19 06:18:57;;;;;;;1.70;1.50;;;15.90;99.90;;;;;;4989932;28;20558;-71
2021/08/19 06:21:26;;;;;;;2.00;1.90;;;16.00;99.90;;;;;;4978844;28;20502;-71
2021/08/19 06:23:53;;;;;;;1.87;1.60;;;16.00;99.90;;;;;;4974550;28;20517;-71
2021/08/19 06:26:20;;;;;;;2.17;1.97;;;16.10;99.90;;;;;;4973146;28;20483;-71
2021/08/19 06:28:47;;;;;;;1.97;1.73;;;16.10;99.90;;;;;;4973286;28;20467;-71
2021/08/19 06:31:13;;;;;;;2.07;1.87;;;16.20;99.90;;;;;;4972745;28;20474;-71
2021/08/19 06:33:40;;;;;;;2.37;2.00;;;16.20;99.90;;;;;;4972934;28;20458;-71
2021/08/19 06:36:07;;;;;;;2.00;1.80;;;16.30;99.90;;;;;;4975236;28;20495;-71
2021/08/19 06:38:35;;;;;;;2.13;1.93;;;16.30;99.90;;;;;;4973160;28;20606;-71
2021/08/19 06:41:02;;;;;;;2.00;1.80;;;16.40;99.90;;;;;;4972856;28;20571;-71
2021/08/19 06:43:29;;;;;;;2.10;1.90;;;16.40;99.90;;;;;;4972975;28;20466;-71
2021/08/19 06:45:55;;;;;;;2.07;1.70;;;16.40;99.90;;;;;;4972953;28;20490;-71
2021/08/19 06:48:22;;;;;;;1.90;1.70;;;16.50;99.90;;;;;;4972491;28;20505;-71
2021/08/19 06:50:48;;;;;;;1.50;1.30;;;16.50;99.90;;;;;;4972612;28;20467;-70
2021/08/19 06:53:15;;;;;;;4.63;2.00;;;16.60;99.90;;;;;;4981034;28;20501;-70
2021/08/19 06:55:43;;;;;;;2.00;1.80;;;16.60;99.90;;;;;;4985645;28;20493;-70
2021/08/19 06:58:10;;;;;;;5.20;1.70;;;16.60;99.90;;;;;;4981731;28;20455;-70
2021/08/19 07:00:37;;;;;;;1.80;1.70;;;16.70;99.90;;;;;;4980519;28;20470;-70
2021/08/19 07:03:03;;;;;;;2.23;1.83;;;16.70;99.90;;;;;;4981190;28;20462;-71
2021/08/19 07:05:30;;;;;;;1.73;1.63;;;16.70;99.90;;;;;;4982245;28;20455;-71
2021/08/19 07:07:59;;;;;;;1.50;1.40;;;16.70;99.90;;;;;;4979513;28;20462;-70
2021/08/19 07:10:26;;;;;;;2.27;1.97;;;16.80;99.90;;;;;;4981108;28;20462;-70
2021/08/19 07:12:54;;;;;;;1.63;1.50;;;16.80;99.90;;;;;;4981863;28;20466;-70
2021/08/19 07:15:21;;;;;;;2.73;1.50;;;16.90;99.90;;;;;;4980808;28;20494;-70
2021/08/19 07:17:47;;;;;;;2.43;1.30;;;16.90;99.90;;;;;;4980260;28;20505;-70
2021/08/19 07:20:14;;;;;;;1.83;1.30;;;17.00;99.90;;;;;;4981796;28;20833;-70
2021/08/19 07:22:44;;;;;;;2.43;1.60;;;17.00;99.90;;;;;;4979680;28;20706;-70
2021/08/19 07:25:12;;;;;;;2.20;1.87;;;17.00;99.90;;;;;;4986097;28;20529;-70
2021/08/19 07:27:39;;;;;;;1.70;1.60;;;17.00;99.90;;;;;;4991500;28;20489;-70
2021/08/19 07:30:08;;;;;;;1.97;1.67;;;17.10;99.90;;;;;;4991567;28;20466;-70
2021/08/19 07:32:35;;;;;;;1.80;1.70;;;17.10;99.90;;;;;;4989197;28;20458;-71
2021/08/19 07:35:02;;;;;;;2.03;1.53;;;17.20;99.90;;;;;;4988889;28;20462;-70
2021/08/19 07:37:28;;;;;;;2.23;2.13;;;17.30;99.90;;;;;;4979650;28;20493;-70
2021/08/19 07:39:56;;;;;;;2.10;1.90;;;17.40;99.90;;;;;;4986782;28;20462;-71
2021/08/19 07:42:23;;;;;;;1.77;1.67;;;17.40;99.90;;;;;;4987380;28;20472;-68
2021/08/19 07:44:51;;;;;;;2.03;1.83;;;17.50;99.90;;;;;;4982728;28;20541;-68
2021/08/19 07:47:22;;;;;;;1.90;1.70;;;17.60;99.90;;;;;;4977944;28;20554;-68
2021/08/19 07:49:49;;;;;;;2.00;1.70;;;17.60;99.90;;;;;;4979170;28;20466;-68
2021/08/19 07:52:17;;;;;;;3.40;1.60;;;17.70;99.90;;;;;;4980220;28;20458;-68
2021/08/19 07:54:44;;;;;;;3.00;2.07;;;17.70;99.90;;;;;;4979329;28;20463;-68
2021/08/19 07:57:12;;;;;;;1.70;1.60;;;17.80;99.90;;;;;;4977843;28;20489;-68
2021/08/19 07:59:39;;;;;;;2.40;2.20;;;17.80;99.90;;;;;;4978246;28;20459;-68
2021/08/19 08:02:07;;;;;;;1.90;1.70;;;17.90;99.90;;;;;;4978638;28;20462;-68
2021/08/19 08:04:35;;;;;;;2.30;1.90;;;18.00;99.90;;;;;;4980560;28;20466;-68
2021/08/19 08:07:03;;;;;;;2.20;2.00;;;18.00;99.90;;;;;;4976551;28;20547;-68
2021/08/19 08:09:30;;;;;;;3.07;2.13;;;18.00;99.90;;;;;;4978244;28;20463;-69
2021/08/19 08:11:58;;;;;;;1.50;1.30;;;18.00;99.90;;;;;;4980739;28;20453;-68
2021/08/19 08:14:29;;;;;;;1.77;1.67;;;18.10;99.90;;;;;;4979132;28;20463;-68
2021/08/19 08:16:56;;;;;;;1.97;1.70;;;18.10;99.90;;;;;;4971318;28;20514;-68
2021/08/19 08:19:24;;;;;;;2.60;1.70;;;18.10;99.90;;;;;;4987573;28;20478;-68
2021/08/19 08:21:53;;;;;;;1.90;1.77;;;18.20;99.90;;;;;;4976947;28;20566;-68
2021/08/19 08:24:21;;;;;;;2.03;1.77;;;18.20;99.90;;;;;;4982608;28;20469;-68
2021/08/19 08:26:48;;;;;;;2.10;1.90;;;18.30;99.90;;;;;;4980777;28;20611;-68
2021/08/19 08:29:18;;;;;;;2.27;1.67;;;18.40;99.90;;;;;;4975334;28;20455;-68
2021/08/19 08:31:45;;;;;;;2.10;1.90;;;18.50;99.90;;;;;;4982381;28;20458;-68
2021/08/19 08:34:13;;;;;;;1.80;1.70;;;18.60;99.90;;;;;;4983142;28;20459;-69
2021/08/19 08:36:42;;;;;;;2.43;1.77;;;18.60;99.90;;;;;;4976546;28;20541;-68
2021/08/19 08:39:11;;;;;;;1.87;1.77;;;18.70;99.90;;;;;;4977824;28;20466;-69
2021/08/19 08:41:40;;;;;;;3.67;1.67;;;18.70;99.90;;;;;;4978924;28;20459;-69
2021/08/19 08:44:12;;;;;;;4.87;1.70;;;18.70;99.90;;;;;;4982163;28;20458;-69
2021/08/19 08:46:41;;;;;;;2.00;1.83;;;18.80;99.90;;;;;;4977527;28;20475;-69
2021/08/19 08:49:11;;;;;;;2.40;1.90;;;18.80;99.90;;;;;;4978853;28;20972;-71
2021/08/19 08:51:39;;;;;;;4.10;1.70;;;18.80;99.90;;;;;;4987151;28;20458;-71
2021/08/19 08:54:09;;;;;;;2.20;2.00;;;18.80;99.90;;;;;;4986495;28;20970;-71
2021/08/19 08:56:37;;;;;;;1.97;1.77;;;18.70;99.90;;;;;;4987345;28;20493;-71
2021/08/19 08:59:06;;;;;;;1.70;1.60;;;18.70;99.90;;;;;;4985988;28;21251;-71
2021/08/19 09:01:34;;;;;;;1.70;1.60;;;18.70;99.90;;;;;;4987786;28;20465;-71
2021/08/19 09:04:03;;;;;;;3.30;1.90;;;18.70;99.90;;;;;;4979001;28;20471;-71
2021/08/19 09:06:41;;;;;;;1.93;1.60;;;18.70;99.90;;;;;;4982053;28;20508;-71
2021/08/19 09:09:18;;;;;;;1.67;1.57;;;18.70;99.90;;;;;;4968572;28;20466;-71
2021/08/19 09:11:48;;;;;;;2.10;1.50;;;18.70;99.90;;;;;;4981563;28;20465;-71
2021/08/19 09:14:18;;;;;;;1.50;1.37;;;18.70;99.90;;;;;;4987019;28;20469;-69
2021/08/19 09:16:47;;;;;;;1.60;1.43;;;18.70;99.90;;;;;;4986744;28;20497;-69
2021/08/19 09:19:16;;;;;;;1.73;1.60;;;18.80;99.90;;;;;;4985857;28;20474;-71
2021/08/19 09:21:51;;;;;;;1.80;1.70;;;18.90;99.90;;;;;;4974247;28;20961;-71
2021/08/19 09:24:20;;;;;;;2.07;1.93;;;19.00;99.90;;;;;;4968838;28;20513;-71
2021/08/19 09:26:50;;;;;;;1.77;1.60;;;19.00;99.90;;;;;;4968255;28;20529;-71
2021/08/19 09:29:25;;;;;;;2.07;1.87;;;19.10;99.90;;;;;;4983812;28;20846;-71
2021/08/19 09:31:54;;;;;;;2.67;2.10;;;19.00;99.90;;;;;;4989471;28;20508;-71
2021/08/19 09:34:21;;;;;;;1.80;1.60;;;19.00;99.90;;;;;;4989015;28;21032;-71
2021/08/19 09:37:00;;;;;;;2.13;1.83;;;18.90;99.90;;;;;;4989193;28;20517;-71
2021/08/19 09:39:34;;;;;;;2.53;1.87;;;18.90;99.90;;;;;;4988846;28;20476;-71
2021/08/19 09:42:03;;;;;;;3.10;2.00;;;18.80;99.90;;;;;;4989273;28;20496;-72
2021/08/19 09:44:33;;;;;;;2.70;1.80;;;18.80;99.90;;;;;;4989279;28;20509;-71
2021/08/19 09:47:00;;;;;;;1.63;1.47;;;18.70;99.90;;;;;;4990531;28;20572;-71
2021/08/19 09:49:29;;;;;;;1.87;1.60;;;18.80;99.90;;;;;;4992941;28;20468;-71
2021/08/19 09:52:05;;;;;;;1.73;1.63;;;18.80;99.90;;;;;;4993113;28;20885;-72
2021/08/19 09:54:33;;;;;;;1.60;1.50;;;18.80;99.90;;;;;;4993071;28;20824;-71
2021/08/19 09:57:02;;;;;;;4.33;1.80;;;18.90;99.90;;;;;;4975200;28;20494;-71
2021/08/19 09:59:34;;;;;;;1.73;1.63;;;18.90;99.90;;;;;;4973113;28;20463;-71
2021/08/19 10:02:01;;;;;;;2.13;1.70;;;19.00;99.90;;;;;;4973662;28;20595;-71
2021/08/19 10:04:27;;;;;;;1.93;1.40;;;19.00;99.90;;;;;;4973695;28;20470;-71
2021/08/19 10:06:55;;;;;;;1.50;1.40;;;19.10;99.90;;;;;;4973449;28;20478;-71
2021/08/19 10:09:22;;;;;;;1.83;1.50;;;19.20;99.90;;;;;;4972959;28;20462;-71
2021/08/19 10:11:50;;;;;;;2.00;1.40;;;19.30;99.90;;;;;;4973561;28;20462;-71
2021/08/19 10:14:20;;;;;;;1.53;1.20;;;19.50;99.90;;;;;;4973189;28;20463;-71
2021/08/19 10:16:48;;;;;;;1.40;1.27;;;19.60;99.90;;;;;;4973754;28;20491;-71
2021/08/19 10:19:20;;;;;;;1.57;1.47;;;19.80;99.90;;;;;;4972526;28;20474;-71
2021/08/19 10:21:51;;;;;;;1.73;1.57;;;19.80;99.90;;;;;;4973765;28;20549;-71
2021/08/19 10:24:19;;;;;;;1.63;1.53;;;19.90;99.90;;;;;;4973245;28;20950;-71
2021/08/19 10:26:46;;;;;;;1.47;1.37;;;20.00;99.90;;;;;;4973467;28;20979;-71
2021/08/19 10:29:13;;;;;;;2.17;1.80;;;20.00;99.90;;;;;;4972771;28;20893;-71
2021/08/19 10:31:44;;;;;;;2.83;1.57;;;20.10;99.90;;;;;;4973626;28;20466;-71
2021/08/19 10:34:13;;;;;;;1.30;1.20;;;20.10;99.90;;;;;;4972944;28;20473;-71
2021/08/19 10:37:04;;;;;;;2.47;2.00;;;20.20;99.90;;;;;;4972977;28;20497;-71
2021/08/19 10:39:39;;;;;;;1.60;1.40;;;20.30;99.90;;;;;;4967557;28;20933;-71
2021/08/19 10:42:27;;;;;;;1.57;1.40;;;20.40;99.90;;;;;;4973093;28;20509;-71
2021/08/19 10:44:54;;;;;;;1.30;1.17;;;20.50;99.90;;;;;;4973231;28;20839;-71
2021/08/19 10:47:36;;;;;;;1.37;1.27;;;20.50;99.90;;;;;;4971952;28;20534;-71
2021/08/19 10:50:25;;;;;;;1.63;1.40;;;20.60;99.90;;;;;;4973005;28;20469;-71
2021/08/19 10:52:52;;;;;;;1.77;1.20;;;20.70;99.90;;;;;;4972722;28;20966;-71
2021/08/19 10:55:20;;;;;;;1.63;1.40;;;20.60;99.90;;;;;;4972769;28;20459;-71
2021/08/19 10:57:48;;;;;;;1.77;1.60;;;20.70;99.90;;;;;;4972219;28;20502;-71
2021/08/19 11:00:16;;;;;;;1.63;1.30;;;20.60;99.90;;;;;;4972125;28;20963;-71
2021/08/19 11:02:45;;;;;;;1.40;1.23;;;20.60;99.90;;;;;;4972522;28;20466;-71
2021/08/19 11:05:13;;;;;;;1.67;1.57;;;20.50;99.90;;;;;;4972273;28;20462;-71
2021/08/19 11:07:47;;;;;;;2.03;1.83;;;20.50;99.90;;;;;;4972138;28;20475;-71
2021/08/19 11:10:25;;;;;;;2.63;1.53;;;20.60;99.90;;;;;;4972019;28;20454;-71
2021/08/19 11:12:52;;;;;;;2.00;1.53;;;20.80;99.90;;;;;;4972662;28;20847;-72
2021/08/19 11:15:20;;;;;;;1.77;1.60;;;21.00;99.90;;;;;;4971967;28;20466;-71
2021/08/19 11:17:52;;;;;;;1.70;1.57;;;21.10;99.90;;;;;;4971959;28;21109;-71
2021/08/19 11:20:24;;;;;;;1.77;1.60;;;21.10;99.90;;;;;;4971819;28;20466;-71
2021/08/19 11:23:02;;;;;;;1.47;1.30;;;21.10;99.90;;;;;;5080633;22;20496;-70
2021/08/19 11:25:29;;;;;;;2.00;1.50;;;21.00;99.90;;;;;;5011121;28;20453;-70
2021/08/19 11:27:56;;;;;;;1.70;1.50;;;21.00;99.90;;;;;;5010642;28;20951;-70
2021/08/19 11:30:32;;;;;;;1.80;1.60;;;20.90;99.90;;;;;;5011030;28;20465;-70
2021/08/19 11:33:15;;;;;;;2.10;1.53;;;20.90;99.90;;;;;;5010937;28;20461;-70
2021/08/19 11:35:42;;;;;;;1.60;1.50;;;20.90;99.90;;;;;;5011003;28;20461;-69
2021/08/19 11:38:11;;;;;;;1.80;1.50;;;20.90;99.90;;;;;;5010600;28;20497;-70
2021/08/19 11:40:38;;;;;;;3.10;1.80;;;20.90;99.90;;;;;;5011090;28;20911;-69
2021/08/19 11:43:24;;;;;;;1.70;1.60;;;20.90;99.90;;;;;;5010540;28;20468;-69
2021/08/19 11:45:53;;;;;;;1.60;1.50;;;20.90;99.90;;;;;;5010586;28;21023;-69
2021/08/19 11:48:22;;;;;;;2.13;1.90;;;20.90;99.90;;;;;;5010128;28;20835;-70
2021/08/19 11:50:53;;;;;;;1.57;1.47;;;21.00;99.90;;;;;;5010182;28;20457;-70
2021/08/19 11:53:21;;;;;;;1.90;1.40;;;21.10;99.90;;;;;;5010643;28;20536;-69
2021/08/19 11:55:47;;;;;;;1.90;1.73;;;21.10;99.90;;;;;;5010847;28;20996;-69
2021/08/19 11:58:16;;;;;;;2.10;1.50;;;21.20;99.90;;;;;;5010417;28;20489;-69
2021/08/19 12:00:56;;;;;;;1.57;1.47;;;21.20;99.90;;;;;;5010736;28;20497;-69
2021/08/19 12:03:25;;;;;;;1.50;1.30;;;21.20;99.90;;;;;;5010677;28;20468;-69
2021/08/19 12:06:04;;;;;;;2.27;1.40;;;21.20;99.90;;;;;;5009908;28;20883;-69
2021/08/19 12:08:32;;;;;;;2.63;2.07;;;21.20;99.90;;;;;;5009990;28;20472;-69
2021/08/19 12:11:01;;;;;;;1.80;1.70;;;21.10;99.90;;;;;;5008992;28;20462;-70
2021/08/19 12:13:29;;;;;;;2.73;1.50;;;20.80;99.90;;;;;;5010285;28;20476;-69
2021/08/19 12:15:56;;;;;;;1.90;1.70;;;20.80;99.90;;;;;;5009923;28;20942;-69
2021/08/19 12:18:25;;;;;;;2.33;1.90;;;20.90;99.90;;;;;;5009764;28;21006;-69
2021/08/19 12:20:53;;;;;;;1.70;1.60;;;21.00;99.90;;;;;;5009945;28;20499;-69
2021/08/19 12:23:21;;;;;;;1.30;1.20;;;21.30;99.90;;;;;;5010152;28;20457;-69
2021/08/19 12:25:48;;;;;;;1.77;1.63;;;21.50;99.90;;;;;;5009832;28;20551;-69
2021/08/19 12:28:17;;;;;;;2.13;1.80;;;21.70;99.90;;;;;;5009288;28;20461;-69
2021/08/19 12:31:02;;;;;;;1.57;1.37;;;21.50;99.90;;;;;;5009797;28;20568;-69
2021/08/19 12:33:32;;;;;;;1.60;1.50;;;21.10;99.90;;;;;;5010049;28;20949;-69
2021/08/19 12:36:10;;;;;;;1.40;1.30;;;20.90;99.90;;;;;;5009789;28;20485;-71
2021/08/19 12:38:36;;;;;;;1.80;1.43;;;20.80;99.90;;;;;;5009318;28;20496;-69
2021/08/19 12:41:14;;;;;;;1.50;1.40;;;20.70;99.90;;;;;;5009924;28;20469;-69
2021/08/19 12:43:42;;;;;;;1.70;1.60;;;20.70;99.90;;;;;;5009534;28;20515;-69
2021/08/19 12:46:10;;;;;;;1.53;1.43;;;20.70;99.90;;;;;;5009616;28;20550;-69
2021/08/19 12:48:38;;;;;;;1.57;1.47;;;20.70;99.90;;;;;;5009014;28;20461;-69
2021/08/19 12:51:19;;;;;;;1.93;1.53;;;20.60;99.90;;;;;;5009384;28;20465;-69
2021/08/19 12:54:01;;;;;;;1.47;1.37;;;20.60;99.90;;;;;;5009422;28;20461;-69